Terminal Aerodrome Forecast
Issued by NWS St Louis, MO

Home | Current Version | Previous Version | Text Only | Print | Product List | Glossary On
Versions: 1 2 3 4 5 6 7 8 9 10 11 12 13 14 15 16 17 18 19 20 21 22 23 24 25 26 27
000
FTUS43 KLSX 211212 AAA
TAFSTL
TAF AMD
KSTL 211212Z 2112/2218 03007KT 4SM BR BKN250
     FM211400 03010KT P6SM SCT200
     FM212000 03010KT P6SM BKN200
     FM221000 07010G19KT P6SM BKN150=

USA.gov is the U.S. government's official web portal to all federal, state and local government web resources and services.